createdAt,value
2022-11-29T00:01:28.938Z,62.58
2022-11-29T00:03:56.004Z,66.75
2022-11-29T00:06:24.099Z,64.70
2022-11-29T00:08:50.863Z,80.63
2022-11-29T00:11:38.822Z,68.13
2022-11-29T00:14:06.368Z,72.38
2022-11-29T00:16:33.158Z,68.72
2022-11-29T00:18:59.936Z,68.80
2022-11-29T00:21:26.665Z,70.72
2022-11-29T00:23:53.688Z,66.93
2022-11-29T00:26:21.039Z,73.68
2022-11-29T00:28:47.922Z,76.03
2022-11-29T00:31:16.719Z,67.95
2022-11-29T00:33:43.820Z,70.45
2022-11-29T00:36:10.945Z,64.80
2022-11-29T00:38:37.769Z,69.97
2022-11-29T00:41:04.549Z,64.63
2022-11-29T00:43:31.585Z,60.92
2022-11-29T00:45:58.737Z,58.15
2022-11-29T00:48:25.517Z,58.50
2022-11-29T00:50:52.290Z,57.63
2022-11-29T00:53:19.011Z,62.42
2022-11-29T00:55:47.920Z,59.10
2022-11-29T00:58:14.584Z,62.70
2022-11-29T01:00:41.485Z,57.70
2022-11-29T01:03:08.275Z,59.15
2022-11-29T01:05:35.051Z,71.07
2022-11-29T01:08:01.757Z,61.75
2022-11-29T01:10:28.452Z,59.90
2022-11-29T01:12:55.412Z,57.55
2022-11-29T01:15:22.398Z,62.45
2022-11-29T01:17:49.527Z,59.72
2022-11-29T01:20:16.329Z,60.42
2022-11-29T01:22:43.654Z,65.15
2022-11-29T01:25:11.356Z,64.38
2022-11-29T01:27:38.022Z,54.40
2022-11-29T01:30:05.465Z,60.53
2022-11-29T01:32:32.240Z,50.97
2022-11-29T01:34:58.942Z,55.60
2022-11-29T01:37:25.609Z,56.25
2022-11-29T01:39:52.339Z,49.50
2022-11-29T01:42:19.220Z,58.22
2022-11-29T01:44:46.182Z,56.78
2022-11-29T01:47:13.198Z,52.67
2022-11-29T01:49:44.181Z,52.42
2022-11-29T01:52:11.042Z,49.58
2022-11-29T01:54:40.156Z,49.78
2022-11-29T01:57:07.684Z,48.63
2022-11-29T01:59:36.665Z,50.13
2022-11-29T02:02:06.558Z,52.47
2022-11-29T02:04:36.530Z,74.28
2022-11-29T02:07:03.307Z,54.78
2022-11-29T02:09:30.031Z,52.47
2022-11-29T02:11:56.750Z,50.72
2022-11-29T02:14:23.851Z,50.85
2022-11-29T02:16:59.456Z,50.88
2022-11-29T02:19:35.161Z,50.00
2022-11-29T02:22:13.418Z,55.55
2022-11-29T02:24:40.387Z,51.40
2022-11-29T02:27:07.404Z,49.85
2022-11-29T02:29:52.491Z,52.05
2022-11-29T02:32:37.780Z,49.78
2022-11-29T02:35:24.750Z,49.60
2022-11-29T02:38:11.701Z,43.53
2022-11-29T02:40:38.437Z,49.53
2022-11-29T02:43:13.665Z,54.10
2022-11-29T02:45:59.337Z,51.83
2022-11-29T02:48:41.090Z,43.92
2022-11-29T02:51:07.698Z,52.72
2022-11-29T02:53:40.222Z,50.78
2022-11-29T02:56:25.183Z,46.22
2022-11-29T02:59:10.676Z,54.15
2022-11-29T03:01:47.025Z,51.15
2022-11-29T03:04:23.699Z,50.88
2022-11-29T03:06:55.437Z,51.35
2022-11-29T03:09:28.846Z,56.00
2022-11-29T03:11:55.525Z,54.80
2022-11-29T03:14:25.336Z,53.72
2022-11-29T03:16:55.386Z,58.17
2022-11-29T03:19:34.645Z,62.03
2022-11-29T03:22:07.270Z,50.97
2022-11-29T03:24:54.757Z,55.83
2022-11-29T03:27:24.853Z,51.67
2022-11-29T03:30:02.483Z,55.20
2022-11-29T03:32:45.133Z,48.88
2022-11-29T03:35:16.884Z,57.70
2022-11-29T03:38:02.460Z,60.65
2022-11-29T03:40:39.003Z,49.50
2022-11-29T03:43:34.978Z,54.85
2022-11-29T03:46:20.611Z,51.63
2022-11-29T03:48:49.844Z,52.17
2022-11-29T03:51:20.051Z,56.58
2022-11-29T03:53:52.698Z,61.92
2022-11-29T03:56:25.601Z,50.28
2022-11-29T03:59:13.580Z,52.67
2022-11-29T04:01:43.343Z,44.30
2022-11-29T04:04:24.644Z,48.80
2022-11-29T04:07:11.562Z,53.25
2022-11-29T04:09:53.632Z,50.90
2022-11-29T04:12:32.545Z,48.60
2022-11-29T04:15:17.963Z,58.40
2022-11-29T04:17:50.649Z,47.58
2022-11-29T04:20:17.289Z,48.92
2022-11-29T04:22:50.327Z,54.72
2022-11-29T04:25:35.631Z,49.55
2022-11-29T04:28:17.770Z,52.38
2022-11-29T04:31:11.665Z,57.30
2022-11-29T04:33:57.710Z,51.92
2022-11-29T04:36:34.261Z,52.33
2022-11-29T04:39:07.309Z,48.17
2022-11-29T04:41:40.880Z,51.25
2022-11-29T04:44:10.885Z,54.63
2022-11-29T04:47:02.890Z,49.72
2022-11-29T04:49:48.385Z,54.42
2022-11-29T04:52:40.212Z,50.58
2022-11-29T04:55:30.675Z,46.63
2022-11-29T04:57:58.018Z,52.63
2022-11-29T05:00:26.028Z,52.13
2022-11-29T05:02:59.940Z,47.92
2022-11-29T05:05:29.776Z,59.03
2022-11-29T05:08:14.686Z,53.97
2022-11-29T05:11:00.159Z,49.85
2022-11-29T05:13:26.844Z,53.88
2022-11-29T05:16:12.098Z,49.65
2022-11-29T05:18:54.117Z,54.05
2022-11-29T05:21:26.926Z,53.88
2022-11-29T05:23:54.070Z,50.33
2022-11-29T05:26:27.136Z,50.22
2022-11-29T05:29:05.197Z,53.63
2022-11-29T05:31:44.940Z,46.50
2022-11-29T05:34:11.584Z,52.42
2022-11-29T05:36:41.488Z,47.42
2022-11-29T05:39:08.177Z,47.28
2022-11-29T05:41:37.995Z,56.28
2022-11-29T05:44:11.331Z,54.42
2022-11-29T05:46:56.741Z,50.05
2022-11-29T05:49:33.508Z,51.05
2022-11-29T05:52:06.156Z,54.60
2022-11-29T05:54:36.223Z,53.22
2022-11-29T05:57:06.008Z,49.10
2022-11-29T05:59:34.306Z,52.58
2022-11-29T06:02:09.935Z,49.15
2022-11-29T06:04:39.496Z,47.28
2022-11-29T06:07:23.109Z,48.80
2022-11-29T06:10:00.544Z,52.28
2022-11-29T06:12:30.903Z,54.78
2022-11-29T06:15:17.171Z,42.58
2022-11-29T06:17:48.836Z,47.15
2022-11-29T06:20:34.298Z,48.95
2022-11-29T06:23:11.444Z,46.38
2022-11-29T06:25:50.552Z,48.30
2022-11-29T06:28:17.245Z,45.35
2022-11-29T06:30:50.704Z,51.55
2022-11-29T06:33:18.046Z,48.45
2022-11-29T06:36:05.001Z,49.97
2022-11-29T06:38:31.683Z,52.25
2022-11-29T06:41:02.086Z,50.50
2022-11-29T06:43:29.554Z,50.08
2022-11-29T06:45:59.917Z,53.83
2022-11-29T06:48:27.832Z,52.88
2022-11-29T06:51:04.670Z,51.25
2022-11-29T06:53:37.538Z,57.83
2022-11-29T06:56:16.500Z,57.97
2022-11-29T06:59:05.832Z,63.10
2022-11-29T07:01:41.543Z,62.80
2022-11-29T07:04:29.353Z,57.53
2022-11-29T07:07:01.485Z,57.55
2022-11-29T07:09:32.833Z,64.88
2022-11-29T07:14:46.951Z,56.30
2022-11-29T07:17:22.415Z,60.03
2022-11-29T07:19:52.248Z,64.07
2022-11-29T07:22:36.681Z,63.47
2022-11-29T07:25:13.602Z,59.08
2022-11-29T07:27:47.116Z,66.20
2022-11-29T07:30:22.975Z,59.05
2022-11-29T07:32:51.437Z,58.83
2022-11-29T07:35:34.841Z,58.13
2022-11-29T07:38:13.974Z,58.42
2022-11-29T07:41:00.255Z,65.75
2022-11-29T07:43:33.231Z,58.67
2022-11-29T07:46:00.549Z,54.03
2022-11-29T07:48:30.081Z,55.97
2022-11-29T07:50:56.925Z,57.53
2022-11-29T07:53:30.285Z,51.00
2022-11-29T07:55:59.711Z,52.72
2022-11-29T07:58:32.497Z,55.13
2022-11-29T08:00:59.713Z,52.75
2022-11-29T08:03:33.844Z,54.67
2022-11-29T08:06:03.610Z,52.80
2022-11-29T08:08:42.267Z,49.03
2022-11-29T08:11:11.871Z,51.83
2022-11-29T08:13:40.804Z,53.30
2022-11-29T08:16:07.892Z,57.58
2022-11-29T08:18:41.235Z,56.45
2022-11-29T08:21:10.910Z,52.75
2022-11-29T08:23:38.924Z,55.50
2022-11-29T08:26:05.677Z,55.15
2022-11-29T08:28:32.376Z,53.03
2022-11-29T08:31:09.038Z,57.67
2022-11-29T08:33:49.239Z,62.60
2022-11-29T08:36:17.994Z,54.28
2022-11-29T08:38:52.642Z,48.38
2022-11-29T08:41:22.489Z,55.33
2022-11-29T08:43:50.302Z,55.35
2022-11-29T08:46:18.944Z,53.88
2022-11-29T08:48:50.914Z,50.63
2022-11-29T08:51:21.928Z,63.15
2022-11-29T08:53:51.705Z,55.40
2022-11-29T08:59:07.696Z,48.72
2022-11-29T09:01:37.292Z,47.75
2022-11-29T09:04:07.068Z,50.78
2022-11-29T09:06:37.053Z,48.38
2022-11-29T09:09:04.073Z,49.70
2022-11-29T09:11:46.891Z,55.25
2022-11-29T09:14:22.176Z,51.05
2022-11-29T09:16:53.834Z,50.40
2022-11-29T09:19:25.337Z,50.53
2022-11-29T09:21:51.985Z,48.42
2022-11-29T09:24:19.675Z,43.08
2022-11-29T09:26:48.500Z,46.95
2022-11-29T09:29:16.826Z,44.47
2022-11-29T09:31:50.840Z,43.72
2022-11-29T09:34:18.816Z,49.63
2022-11-29T09:36:48.318Z,56.63
2022-11-29T09:39:26.191Z,49.58
2022-11-29T09:42:08.155Z,43.10
2022-11-29T09:44:52.908Z,41.20
2022-11-29T09:47:43.765Z,40.15
2022-11-29T09:50:16.709Z,41.10
2022-11-29T09:52:52.726Z,54.10
2022-11-29T09:55:28.730Z,63.20
2022-11-29T09:57:59.600Z,54.33
2022-11-29T10:00:33.312Z,47.90
2022-11-29T10:05:49.408Z,46.95
2022-11-29T10:08:30.108Z,47.10
2022-11-29T10:11:01.810Z,47.80
2022-11-29T10:13:37.381Z,41.25
2022-11-29T10:16:19.274Z,45.90
2022-11-29T10:18:54.486Z,38.50
2022-11-29T10:21:31.234Z,48.22
2022-11-29T10:24:06.396Z,41.35
2022-11-29T10:26:36.049Z,32.67
2022-11-29T10:29:02.836Z,43.97
2022-11-29T10:31:35.003Z,39.90
2022-11-29T10:34:16.154Z,38.03
2022-11-29T10:36:50.400Z,27.30
2022-11-29T10:39:25.939Z,30.23
2022-11-29T10:42:01.617Z,32.53
2022-11-29T10:44:31.612Z,26.38
2022-11-29T10:47:11.325Z,28.95
2022-11-29T10:49:42.641Z,34.35
2022-11-29T10:52:18.231Z,33.72
2022-11-29T10:54:54.200Z,31.10
2022-11-29T10:57:26.646Z,30.58
2022-11-29T10:59:59.201Z,30.40
2022-11-29T11:02:27.944Z,33.08
2022-11-29T11:05:06.090Z,26.88
2022-11-29T11:07:35.968Z,32.92
2022-11-29T11:10:14.956Z,34.17
2022-11-29T11:13:01.498Z,31.98
2022-11-29T11:15:32.171Z,33.92
2022-11-29T11:18:12.886Z,31.65
2022-11-29T11:20:48.525Z,34.22
2022-11-29T11:23:42.704Z,31.13
2022-11-29T11:29:03.525Z,34.28
2022-11-29T11:31:41.970Z,29.10
2022-11-29T11:34:31.198Z,30.20
2022-11-29T11:37:17.462Z,26.27
2022-11-29T11:39:46.994Z,27.55
2022-11-29T11:42:37.795Z,31.13
2022-11-29T11:45:10.591Z,30.48
2022-11-29T11:47:43.817Z,30.20
2022-11-29T11:50:19.701Z,29.38
2022-11-29T11:52:53.400Z,33.45
2022-11-29T11:55:32.521Z,29.65
2022-11-29T11:58:09.801Z,31.73
2022-11-29T12:01:03.976Z,34.50
2022-11-29T12:03:31.475Z,27.67
2022-11-29T12:06:10.408Z,27.20
2022-11-29T12:08:38.135Z,30.10
2022-11-29T12:11:07.597Z,27.52
2022-11-29T12:13:43.913Z,27.63
2022-11-29T12:16:17.487Z,27.42
2022-11-29T12:18:53.666Z,27.00
2022-11-29T12:21:26.549Z,31.27
2022-11-29T12:23:53.192Z,26.60
2022-11-29T12:29:27.349Z,22.63
2022-11-29T12:32:00.903Z,25.55
2022-11-29T12:34:42.972Z,26.70
2022-11-29T12:41:26.841Z,28.40
2022-11-29T12:43:58.385Z,26.13
2022-11-29T12:46:27.545Z,24.50
2022-11-29T12:49:02.949Z,22.92
2022-11-29T12:51:35.952Z,23.05
2022-11-29T12:54:02.803Z,26.43
2022-11-29T12:56:29.517Z,23.52
2022-11-29T12:59:02.560Z,23.42
2022-11-29T13:01:45.013Z,22.95
2022-11-29T13:04:18.159Z,25.25
2022-11-29T13:06:44.906Z,21.58
2022-11-29T13:09:28.371Z,23.08
2022-11-29T13:11:55.483Z,24.50
2022-11-29T13:14:42.778Z,21.35
2022-11-29T13:17:21.260Z,22.92
2022-11-29T13:19:51.040Z,23.63
2022-11-29T13:22:26.685Z,21.63
2022-11-29T13:24:59.397Z,22.27
2022-11-29T13:27:38.295Z,24.30
2022-11-29T13:30:06.665Z,19.38
2022-11-29T13:32:43.317Z,18.83
2022-11-29T13:35:21.695Z,19.55
2022-11-29T13:37:55.151Z,18.90
2022-11-29T13:40:50.104Z,20.40
2022-11-29T13:43:41.546Z,24.83
2022-11-29T13:46:30.397Z,25.38
2022-11-29T13:49:02.616Z,21.60
2022-11-29T13:51:38.852Z,28.02
2022-11-29T13:54:09.541Z,23.75
2022-11-29T13:56:48.379Z,23.65
2022-11-29T13:59:22.718Z,23.50
2022-11-29T14:01:51.635Z,20.83
2022-11-29T14:04:18.707Z,21.98
2022-11-29T14:06:49.938Z,26.80
2022-11-29T14:09:24.616Z,23.45
2022-11-29T14:11:59.633Z,23.33
2022-11-29T14:14:37.043Z,27.15
2022-11-29T14:17:11.044Z,25.17
2022-11-29T14:19:41.865Z,21.77
2022-11-29T14:22:22.710Z,22.67
2022-11-29T14:25:16.643Z,26.58
2022-11-29T14:28:04.756Z,25.60
2022-11-29T14:30:42.241Z,22.98
2022-11-29T14:33:18.962Z,23.10
2022-11-29T14:35:59.576Z,21.60
2022-11-29T14:38:41.844Z,34.03
2022-11-29T14:41:31.856Z,26.25
2022-11-29T14:44:09.204Z,27.05
2022-11-29T14:46:39.369Z,24.15
2022-11-29T14:49:13.088Z,23.38
2022-11-29T14:51:42.326Z,26.52
2022-11-29T14:54:13.251Z,27.08
2022-11-29T14:56:52.862Z,25.83
2022-11-29T14:59:41.693Z,22.40
2022-11-29T15:02:24.413Z,22.58
2022-11-29T15:04:56.094Z,25.30
2022-11-29T15:07:27.802Z,26.23
2022-11-29T15:10:01.805Z,23.07
2022-11-29T15:12:34.508Z,29.73
2022-11-29T15:15:12.138Z,26.60
2022-11-29T15:17:48.517Z,22.83
2022-11-29T15:20:26.084Z,28.52
2022-11-29T15:23:01.608Z,28.65
2022-11-29T15:25:36.985Z,30.45
2022-11-29T15:28:09.056Z,31.70
2022-11-29T15:30:37.019Z,28.05
2022-11-29T15:33:09.923Z,32.80
2022-11-29T15:35:45.997Z,26.90
2022-11-29T15:38:19.169Z,33.67
2022-11-29T15:40:53.042Z,41.63
2022-11-29T15:43:30.963Z,28.33
2022-11-29T15:46:02.802Z,33.55
2022-11-29T15:48:37.819Z,26.80
2022-11-29T15:51:19.237Z,37.85
2022-11-29T15:53:49.702Z,38.13
2022-11-29T15:56:18.656Z,32.30
2022-11-29T15:58:55.388Z,33.28
2022-11-29T16:01:25.832Z,45.75
2022-11-29T16:04:02.045Z,49.53
2022-11-29T16:06:34.140Z,40.63
2022-11-29T16:09:08.506Z,43.33
2022-11-29T16:11:37.245Z,51.40
2022-11-29T16:14:17.169Z,56.15
2022-11-29T16:16:55.017Z,46.22
2022-11-29T16:19:51.619Z,98.60
2022-11-29T16:22:29.683Z,78.57
2022-11-29T16:25:12.682Z,66.90
2022-11-29T16:27:46.067Z,66.05
2022-11-29T16:30:23.479Z,60.30
2022-11-29T16:33:04.212Z,45.53
2022-11-29T16:35:38.572Z,46.13
2022-11-29T16:38:10.978Z,54.17
2022-11-29T16:40:43.616Z,48.47
2022-11-29T16:43:10.878Z,43.47
2022-11-29T16:45:41.901Z,38.35
2022-11-29T16:48:28.560Z,35.38
2022-11-29T16:51:17.540Z,35.58
2022-11-29T16:53:54.578Z,40.40
2022-11-29T16:56:25.965Z,36.78
2022-11-29T16:59:20.944Z,38.75
2022-11-29T17:01:56.292Z,36.10
2022-11-29T17:04:25.851Z,34.05
2022-11-29T17:06:59.709Z,40.33
2022-11-29T17:09:35.463Z,35.60
2022-11-29T17:14:39.538Z,36.95
2022-11-29T17:17:14.281Z,38.60
2022-11-29T17:19:41.789Z,36.08
2022-11-29T17:22:11.354Z,39.80
2022-11-29T17:24:47.626Z,38.88
2022-11-29T17:27:24.419Z,44.90
2022-11-29T17:29:53.263Z,44.72
2022-11-29T17:32:26.524Z,43.10
2022-11-29T17:34:57.073Z,40.83
2022-11-29T17:37:23.976Z,41.97
2022-11-29T17:39:50.706Z,38.13
2022-11-29T17:42:17.518Z,44.60
2022-11-29T17:44:44.157Z,43.20
2022-11-29T17:47:22.237Z,40.22
2022-11-29T17:49:49.060Z,44.00
2022-11-29T17:52:15.892Z,46.97
2022-11-29T17:54:45.311Z,41.65
2022-11-29T17:57:14.429Z,44.97
2022-11-29T17:59:49.044Z,57.05
2022-11-29T18:02:31.972Z,43.05
2022-11-29T18:05:01.541Z,46.47
2022-11-29T18:07:57.067Z,48.60
2022-11-29T18:10:29.886Z,40.40
2022-11-29T18:13:00.027Z,47.10
2022-11-29T18:15:32.484Z,40.28
2022-11-29T18:18:01.598Z,38.35
2022-11-29T18:20:34.353Z,44.25
2022-11-29T18:23:07.655Z,42.05
2022-11-29T18:25:39.472Z,35.35
2022-11-29T18:28:10.488Z,35.72
2022-11-29T18:30:37.758Z,42.85
2022-11-29T18:33:10.384Z,40.13
2022-11-29T18:35:39.342Z,41.42
2022-11-29T18:38:16.449Z,42.35
2022-11-29T18:40:45.822Z,39.22
2022-11-29T18:43:18.848Z,41.28
2022-11-29T18:45:50.958Z,40.83
2022-11-29T18:48:18.218Z,38.00
2022-11-29T18:50:51.142Z,39.67
2022-11-29T18:53:23.485Z,38.88
2022-11-29T18:56:01.056Z,36.85
2022-11-29T18:58:28.784Z,38.80
2022-11-29T19:01:07.338Z,42.03
2022-11-29T19:03:38.450Z,53.50
2022-11-29T19:06:06.442Z,41.08
2022-11-29T19:08:40.127Z,47.53
2022-11-29T19:11:19.403Z,46.10
2022-11-29T19:13:49.473Z,46.50
2022-11-29T19:16:18.923Z,45.70
2022-11-29T19:18:55.611Z,49.60
2022-11-29T19:21:27.974Z,50.00
2022-11-29T19:23:59.114Z,48.80
2022-11-29T19:26:32.720Z,47.00
2022-11-29T19:29:02.938Z,46.88
2022-11-29T19:31:32.098Z,43.30
2022-11-29T19:34:01.804Z,39.83
2022-11-29T19:36:32.608Z,38.15
2022-11-29T19:39:02.571Z,36.40
2022-11-29T19:41:30.956Z,41.22
2022-11-29T19:44:04.499Z,40.70
2022-11-29T19:46:35.989Z,46.15
2022-11-29T19:49:05.949Z,46.95
2022-11-29T19:51:33.205Z,47.90
2022-11-29T19:54:06.775Z,45.70
2022-11-29T19:56:33.632Z,42.13
2022-11-29T19:59:03.675Z,70.90
2022-11-29T20:01:42.784Z,53.45
2022-11-29T20:04:10.776Z,40.53
2022-11-29T20:06:40.727Z,35.40
2022-11-29T20:09:10.211Z,41.58
2022-11-29T20:11:38.102Z,37.05
2022-11-29T20:14:13.022Z,40.70
2022-11-29T20:16:39.754Z,40.63
2022-11-29T20:19:14.060Z,39.72
2022-11-29T20:21:42.594Z,43.33
2022-11-29T20:24:09.743Z,44.35
2022-11-29T20:26:37.150Z,45.92
2022-11-29T20:29:05.175Z,40.20
2022-11-29T20:31:32.835Z,50.85
2022-11-29T20:33:59.893Z,43.00
2022-11-29T20:36:46.563Z,48.10
2022-11-29T20:39:22.244Z,45.58
2022-11-29T20:42:04.752Z,50.97
2022-11-29T20:44:38.579Z,50.28
2022-11-29T20:47:12.571Z,49.33
2022-11-29T20:49:40.596Z,50.60
2022-11-29T20:52:11.142Z,52.05
2022-11-29T20:54:37.883Z,54.97
2022-11-29T20:57:04.603Z,51.83
2022-11-29T20:59:31.515Z,60.58
2022-11-29T21:02:01.155Z,56.67
2022-11-29T21:04:27.963Z,62.72
2022-11-29T21:06:54.644Z,56.20
2022-11-29T21:09:21.351Z,58.40
2022-11-29T21:11:48.105Z,59.38
2022-11-29T21:14:14.890Z,61.60
2022-11-29T21:16:41.900Z,59.58
2022-11-29T21:19:12.308Z,58.67
2022-11-29T21:21:46.260Z,59.63
2022-11-29T21:24:18.999Z,53.25
2022-11-29T21:26:49.848Z,56.47
2022-11-29T21:29:17.095Z,60.42
2022-11-29T21:31:44.297Z,57.25
2022-11-29T21:34:11.010Z,57.30
2022-11-29T21:36:38.312Z,54.53
2022-11-29T21:39:06.221Z,56.47
2022-11-29T21:41:33.362Z,54.35
2022-11-29T21:44:08.204Z,50.60
2022-11-29T21:46:35.737Z,50.58
2022-11-29T21:49:02.759Z,51.55
2022-11-29T21:51:29.590Z,52.35
2022-11-29T21:53:56.313Z,54.58
2022-11-29T21:56:23.097Z,65.20
2022-11-29T21:58:50.106Z,52.50
2022-11-29T22:01:18.568Z,50.20
2022-11-29T22:03:45.635Z,53.40
2022-11-29T22:06:14.230Z,51.95
2022-11-29T22:08:42.375Z,54.78
2022-11-29T22:11:10.405Z,53.00
2022-11-29T22:13:58.152Z,50.53
2022-11-29T22:16:25.595Z,52.50
2022-11-29T22:18:52.343Z,52.83
2022-11-29T22:21:19.373Z,50.92
2022-11-29T22:23:46.102Z,46.22
2022-11-29T22:26:12.959Z,46.17
2022-11-29T22:28:39.613Z,49.88
2022-11-29T22:31:07.955Z,50.92
2022-11-29T22:33:35.119Z,49.42
2022-11-29T22:36:05.945Z,48.85
2022-11-29T22:38:32.837Z,48.00
2022-11-29T22:41:00.892Z,51.60
2022-11-29T22:43:27.976Z,49.75
2022-11-29T22:45:54.653Z,58.17
2022-11-29T22:48:21.342Z,49.15
2022-11-29T22:50:47.990Z,49.30
2022-11-29T22:53:14.618Z,48.42
2022-11-29T22:55:43.014Z,50.75
2022-11-29T22:58:09.755Z,48.17
2022-11-29T23:00:44.049Z,52.55
2022-11-29T23:03:11.073Z,57.50
2022-11-29T23:05:38.097Z,57.25
2022-11-29T23:08:05.113Z,54.20
2022-11-29T23:10:31.786Z,51.90
2022-11-29T23:12:59.002Z,62.40
2022-11-29T23:15:25.882Z,50.40
2022-11-29T23:17:52.549Z,53.25
2022-11-29T23:20:21.864Z,53.75
2022-11-29T23:22:49.538Z,51.13
2022-11-29T23:25:16.277Z,55.55
2022-11-29T23:27:42.977Z,55.55
2022-11-29T23:30:09.911Z,58.30
2022-11-29T23:32:37.207Z,58.70
2022-11-29T23:35:04.227Z,60.63
2022-11-29T23:37:30.893Z,58.90
2022-11-29T23:39:57.641Z,61.75
2022-11-29T23:42:24.391Z,59.90
2022-11-29T23:44:51.126Z,58.88
2022-11-29T23:47:17.825Z,57.10
2022-11-29T23:49:44.495Z,52.95
2022-11-29T23:52:11.303Z,57.35
2022-11-29T23:54:38.020Z,54.00
2022-11-29T23:57:06.978Z,58.78
2022-11-29T23:59:33.807Z,49.67
